sensor_id;sensor_type;location;lat;lon;timestamp;temperature;humidity
18658;DHT22;9458;50.942;5.074;2022-11-23T10:47:48;11.30;99.90
18658;DHT22;9458;50.942;5.074;2022-11-23T15:04:23;10.40;99.90
18658;DHT22;9458;50.942;5.074;2022-11-23T15:06:56;10.40;99.90
18658;DHT22;9458;50.942;5.074;2022-11-23T15:09:35;10.40;99.90
18658;DHT22;9458;50.942;5.074;2022-11-23T15:12:07;10.40;99.90
18658;DHT22;9458;50.942;5.074;2022-11-23T15:14:45;10.30;99.90
18658;DHT22;9458;50.942;5.074;2022-11-23T15:17:15;10.30;99.90
18658;DHT22;9458;50.942;5.074;2022-11-23T15:19:52;10.30;99.90
18658;DHT22;9458;50.942;5.074;2022-11-23T15:22:20;10.20;99.90
18658;DHT22;9458;50.942;5.074;2022-11-23T15:24:50;10.20;99.90
18658;DHT22;9458;50.942;5.074;2022-11-23T15:27:21;10.20;99.90
18658;DHT22;9458;50.942;5.074;2022-11-23T15:29:53;10.30;99.90
18658;DHT22;9458;50.942;5.074;2022-11-23T15:32:24;10.20;99.90
18658;DHT22;9458;50.942;5.074;2022-11-23T15:34:56;10.30;99.90
18658;DHT22;9458;50.942;5.074;2022-11-23T15:37:25;10.30;99.90
18658;DHT22;9458;50.942;5.074;2022-11-23T15:39:54;10.30;99.90
18658;DHT22;9458;50.942;5.074;2022-11-23T15:42:24;10.30;99.90
18658;DHT22;9458;50.942;5.074;2022-11-23T15:44:53;10.20;99.90
18658;DHT22;9458;50.942;5.074;2022-11-23T15:47:23;10.20;99.90
18658;DHT22;9458;50.942;5.074;2022-11-23T15:49:58;10.20;99.90
18658;DHT22;9458;50.942;5.074;2022-11-23T15:52:29;10.20;99.90
18658;DHT22;9458;50.942;5.074;2022-11-23T15:55:03;10.20;99.90
18658;DHT22;9458;50.942;5.074;2022-11-23T15:57:31;10.10;99.90
18658;DHT22;9458;50.942;5.074;2022-11-23T16:00:01;10.10;99.90
18658;DHT22;9458;50.942;5.074;2022-11-23T16:02:30;10.10;99.90
18658;DHT22;9458;50.942;5.074;2022-11-23T16:05:12;10.10;99.90
18658;DHT22;9458;50.942;5.074;2022-11-23T16:07:51;10.10;99.90
18658;DHT22;9458;50.942;5.074;2022-11-23T16:10:20;10.10;99.90
18658;DHT22;9458;50.942;5.074;2022-11-23T16:12:50;10.00;99.90
18658;DHT22;9458;50.942;5.074;2022-11-23T16:15:38;10.00;99.90
18658;DHT22;9458;50.942;5.074;2022-11-23T16:18:19;10.00;99.90
18658;DHT22;9458;50.942;5.074;2022-11-23T16:20:52;9.90;99.90
18658;DHT22;9458;50.942;5.074;2022-11-23T16:23:23;9.90;99.90
18658;DHT22;9458;50.942;5.074;2022-11-23T16:25:57;9.90;99.90
18658;DHT22;9458;50.942;5.074;2022-11-23T16:28:27;9.90;99.90
18658;DHT22;9458;50.942;5.074;2022-11-23T16:30:56;9.90;99.90
18658;DHT22;9458;50.942;5.074;2022-11-23T16:33:25;9.90;99.90
18658;DHT22;9458;50.942;5.074;2022-11-23T16:35:55;9.80;99.90
18658;DHT22;9458;50.942;5.074;2022-11-23T16:38:24;9.80;99.90
18658;DHT22;9458;50.942;5.074;2022-11-23T16:40:56;9.80;99.90
18658;DHT22;9458;50.942;5.074;2022-11-23T16:43:24;9.80;99.90
18658;DHT22;9458;50.942;5.074;2022-11-23T16:45:51;9.70;99.90
18658;DHT22;9458;50.942;5.074;2022-11-23T16:48:40;9.70;99.90
18658;DHT22;9458;50.942;5.074;2022-11-23T16:51:11;9.60;99.90
18658;DHT22;9458;50.942;5.074;2022-11-23T16:53:44;9.60;99.90
18658;DHT22;9458;50.942;5.074;2022-11-23T16:56:18;9.60;99.90
18658;DHT22;9458;50.942;5.074;2022-11-23T16:58:51;9.60;99.90
18658;DHT22;9458;50.942;5.074;2022-11-23T17:01:21;9.60;99.90
18658;DHT22;9458;50.942;5.074;2022-11-23T17:03:49;9.50;99.90
18658;DHT22;9458;50.942;5.074;2022-11-23T17:06:19;9.50;99.90
18658;DHT22;9458;50.942;5.074;2022-11-23T17:08:49;9.50;99.90
18658;DHT22;9458;50.942;5.074;2022-11-23T17:11:20;9.40;99.90
18658;DHT22;9458;50.942;5.074;2022-11-23T17:13:50;9.40;99.90
18658;DHT22;9458;50.942;5.074;2022-11-23T17:16:20;9.40;99.90
18658;DHT22;9458;50.942;5.074;2022-11-23T17:18:48;9.40;99.90
18658;DHT22;9458;50.942;5.074;2022-11-23T17:21:18;9.40;99.90
18658;DHT22;9458;50.942;5.074;2022-11-23T17:23:45;9.30;99.90
18658;DHT22;9458;50.942;5.074;2022-11-23T17:26:30;9.30;99.90
18658;DHT22;9458;50.942;5.074;2022-11-23T17:29:02;9.30;99.90
18658;DHT22;9458;50.942;5.074;2022-11-23T17:31:30;9.30;99.90
18658;DHT22;9458;50.942;5.074;2022-11-23T17:33:59;9.30;99.90
18658;DHT22;9458;50.942;5.074;2022-11-23T17:36:29;9.30;99.90
18658;DHT22;9458;50.942;5.074;2022-11-23T17:38:57;9.30;99.90
18658;DHT22;9458;50.942;5.074;2022-11-23T17:41:24;9.20;99.90
18658;DHT22;9458;50.942;5.074;2022-11-23T17:43:53;9.20;99.90
18658;DHT22;9458;50.942;5.074;2022-11-23T17:46:22;9.20;99.90
18658;DHT22;9458;50.942;5.074;2022-11-23T17:48:53;9.20;99.90
18658;DHT22;9458;50.942;5.074;2022-11-23T17:51:21;9.20;99.90
18658;DHT22;9458;50.942;5.074;2022-11-23T17:53:50;9.20;99.90
18658;DHT22;9458;50.942;5.074;2022-11-23T17:56:20;9.20;99.90
18658;DHT22;9458;50.942;5.074;2022-11-23T17:58:50;9.20;99.90
18658;DHT22;9458;50.942;5.074;2022-11-23T18:01:19;9.20;99.90
18658;DHT22;9458;50.942;5.074;2022-11-23T18:03:49;9.10;99.90
18658;DHT22;9458;50.942;5.074;2022-11-23T18:06:18;9.20;99.90
18658;DHT22;9458;50.942;5.074;2022-11-23T18:08:47;9.10;99.90
18658;DHT22;9458;50.942;5.074;2022-11-23T18:11:20;9.20;99.90
18658;DHT22;9458;50.942;5.074;2022-11-23T18:14:03;9.10;99.90
18658;DHT22;9458;50.942;5.074;2022-11-23T18:16:33;9.10;99.90
18658;DHT22;9458;50.942;5.074;2022-11-23T18:19:02;9.10;99.90
18658;DHT22;9458;50.942;5.074;2022-11-23T18:21:30;9.10;99.90
18658;DHT22;9458;50.942;5.074;2022-11-23T18:23:58;9.10;99.90
18658;DHT22;9458;50.942;5.074;2022-11-23T18:26:28;9.10;99.90
18658;DHT22;9458;50.942;5.074;2022-11-23T18:28:57;9.10;99.90
18658;DHT22;9458;50.942;5.074;2022-11-23T18:31:25;9.10;99.90
18658;DHT22;9458;50.942;5.074;2022-11-23T18:33:52;9.10;99.90
18658;DHT22;9458;50.942;5.074;2022-11-23T18:36:21;9.10;99.90
18658;DHT22;9458;50.942;5.074;2022-11-23T18:38:51;9.10;99.90
18658;DHT22;9458;50.942;5.074;2022-11-23T18:41:19;9.10;99.90
18658;DHT22;9458;50.942;5.074;2022-11-23T18:43:49;9.10;99.90
18658;DHT22;9458;50.942;5.074;2022-11-23T18:46:17;9.10;99.90
18658;DHT22;9458;50.942;5.074;2022-11-23T18:48:47;9.10;99.90
18658;DHT22;9458;50.942;5.074;2022-11-23T18:51:16;9.00;99.90
18658;DHT22;9458;50.942;5.074;2022-11-23T18:53:44;9.10;99.90
18658;DHT22;9458;50.942;5.074;2022-11-23T18:56:14;9.10;99.90
18658;DHT22;9458;50.942;5.074;2022-11-23T18:58:45;9.10;99.90
18658;DHT22;9458;50.942;5.074;2022-11-23T19:01:26;9.10;99.90
18658;DHT22;9458;50.942;5.074;2022-11-23T19:03:54;9.10;99.90
18658;DHT22;9458;50.942;5.074;2022-11-23T19:06:22;9.10;99.90
18658;DHT22;9458;50.942;5.074;2022-11-23T19:08:51;9.10;99.90
18658;DHT22;9458;50.942;5.074;2022-11-23T19:11:23;9.10;99.90
18658;DHT22;9458;50.942;5.074;2022-11-23T19:13:53;9.10;99.90
18658;DHT22;9458;50.942;5.074;2022-11-23T19:16:24;9.20;99.90
18658;DHT22;9458;50.942;5.074;2022-11-23T19:18:56;9.10;99.90
18658;DHT22;9458;50.942;5.074;2022-11-23T19:21:26;9.10;99.90
18658;DHT22;9458;50.942;5.074;2022-11-23T19:23:54;9.10;99.90
18658;DHT22;9458;50.942;5.074;2022-11-23T19:26:24;9.10;99.90
18658;DHT22;9458;50.942;5.074;2022-11-23T19:28:53;9.10;99.90
18658;DHT22;9458;50.942;5.074;2022-11-23T19:31:23;9.10;99.90
18658;DHT22;9458;50.942;5.074;2022-11-23T19:33:54;9.10;99.90
18658;DHT22;9458;50.942;5.074;2022-11-23T19:36:23;9.10;99.90
18658;DHT22;9458;50.942;5.074;2022-11-23T19:38:53;9.10;99.90
18658;DHT22;9458;50.942;5.074;2022-11-23T19:41:21;9.10;99.90
18658;DHT22;9458;50.942;5.074;2022-11-23T19:43:51;9.10;99.90
18658;DHT22;9458;50.942;5.074;2022-11-23T19:46:19;9.10;99.90
18658;DHT22;9458;50.942;5.074;2022-11-23T19:48:48;9.10;99.90
18658;DHT22;9458;50.942;5.074;2022-11-23T19:51:18;9.10;99.90
18658;DHT22;9458;50.942;5.074;2022-11-23T19:53:47;9.10;99.90
18658;DHT22;9458;50.942;5.074;2022-11-23T19:56:17;9.10;99.90
18658;DHT22;9458;50.942;5.074;2022-11-23T19:58:50;9.10;99.90
18658;DHT22;9458;50.942;5.074;2022-11-23T20:01:20;9.10;99.90
18658;DHT22;9458;50.942;5.074;2022-11-23T20:03:51;9.10;99.90
18658;DHT22;9458;50.942;5.074;2022-11-23T20:06:21;9.10;99.90
18658;DHT22;9458;50.942;5.074;2022-11-23T20:08:52;9.10;99.90
18658;DHT22;9458;50.942;5.074;2022-11-23T20:11:20;9.10;99.90
18658;DHT22;9458;50.942;5.074;2022-11-23T20:13:48;9.10;99.90
18658;DHT22;9458;50.942;5.074;2022-11-23T20:16:18;9.10;99.90
18658;DHT22;9458;50.942;5.074;2022-11-23T20:18:47;9.10;99.90
18658;DHT22;9458;50.942;5.074;2022-11-23T20:21:19;9.10;99.90
18658;DHT22;9458;50.942;5.074;2022-11-23T20:23:48;9.10;99.90
18658;DHT22;9458;50.942;5.074;2022-11-23T20:26:21;9.10;99.90
18658;DHT22;9458;50.942;5.074;2022-11-23T20:28:50;9.10;99.90
18658;DHT22;9458;50.942;5.074;2022-11-23T20:31:19;9.10;99.90
18658;DHT22;9458;50.942;5.074;2022-11-23T20:33:48;9.10;99.90
18658;DHT22;9458;50.942;5.074;2022-11-23T20:36:19;9.10;99.90
18658;DHT22;9458;50.942;5.074;2022-11-23T20:38:48;9.10;99.90
18658;DHT22;9458;50.942;5.074;2022-11-23T20:41:17;9.10;99.90
18658;DHT22;9458;50.942;5.074;2022-11-23T20:43:47;9.10;99.90
18658;DHT22;9458;50.942;5.074;2022-11-23T20:46:16;9.10;99.90
18658;DHT22;9458;50.942;5.074;2022-11-23T20:48:44;9.10;99.90
18658;DHT22;9458;50.942;5.074;2022-11-23T20:51:13;9.10;99.90
18658;DHT22;9458;50.942;5.074;2022-11-23T20:53:45;9.10;99.90
18658;DHT22;9458;50.942;5.074;2022-11-23T20:56:15;9.10;99.90
18658;DHT22;9458;50.942;5.074;2022-11-23T20:58:45;9.10;99.90
18658;DHT22;9458;50.942;5.074;2022-11-23T21:01:15;9.10;99.90
18658;DHT22;9458;50.942;5.074;2022-11-23T21:03:49;9.00;99.90
18658;DHT22;9458;50.942;5.074;2022-11-23T21:06:18;9.10;99.90
18658;DHT22;9458;50.942;5.074;2022-11-23T21:08:48;9.10;99.90
18658;DHT22;9458;50.942;5.074;2022-11-23T21:11:18;9.10;99.90
18658;DHT22;9458;50.942;5.074;2022-11-23T21:14:05;9.10;99.90
18658;DHT22;9458;50.942;5.074;2022-11-23T21:16:35;9.10;99.90
18658;DHT22;9458;50.942;5.074;2022-11-23T21:19:04;9.10;99.90
18658;DHT22;9458;50.942;5.074;2022-11-23T21:21:34;9.10;99.90
18658;DHT22;9458;50.942;5.074;2022-11-23T21:24:04;9.10;99.90
18658;DHT22;9458;50.942;5.074;2022-11-23T21:26:32;9.10;99.90
18658;DHT22;9458;50.942;5.074;2022-11-23T21:29:00;9.10;99.90
18658;DHT22;9458;50.942;5.074;2022-11-23T21:31:29;9.10;99.90
18658;DHT22;9458;50.942;5.074;2022-11-23T21:33:58;9.10;99.90
18658;DHT22;9458;50.942;5.074;2022-11-23T21:36:37;9.10;99.90
18658;DHT22;9458;50.942;5.074;2022-11-23T21:39:07;9.10;99.90
18658;DHT22;9458;50.942;5.074;2022-11-23T21:41:36;9.10;99.90
18658;DHT22;9458;50.942;5.074;2022-11-23T21:44:06;9.10;99.90
18658;DHT22;9458;50.942;5.074;2022-11-23T21:46:34;9.10;99.90
18658;DHT22;9458;50.942;5.074;2022-11-23T21:49:03;9.10;99.90
18658;DHT22;9458;50.942;5.074;2022-11-23T21:51:32;9.10;99.90
18658;DHT22;9458;50.942;5.074;2022-11-23T21:54:03;9.10;99.90
18658;DHT22;9458;50.942;5.074;2022-11-23T21:56:32;9.10;99.90
18658;DHT22;9458;50.942;5.074;2022-11-23T21:59:01;9.10;99.90
18658;DHT22;9458;50.942;5.074;2022-11-23T22:01:30;9.10;99.90
18658;DHT22;9458;50.942;5.074;2022-11-23T22:04:01;9.10;99.90
18658;DHT22;9458;50.942;5.074;2022-11-23T22:06:29;9.10;99.90
18658;DHT22;9458;50.942;5.074;2022-11-23T22:08:58;9.00;99.90
18658;DHT22;9458;50.942;5.074;2022-11-23T22:11:28;9.10;99.90
18658;DHT22;9458;50.942;5.074;2022-11-23T22:14:01;9.10;99.90
18658;DHT22;9458;50.942;5.074;2022-11-23T22:16:32;9.10;99.90
18658;DHT22;9458;50.942;5.074;2022-11-23T22:19:03;9.20;99.90
18658;DHT22;9458;50.942;5.074;2022-11-23T22:21:32;9.20;99.90
18658;DHT22;9458;50.942;5.074;2022-11-23T22:24:01;9.20;99.90
18658;DHT22;9458;50.942;5.074;2022-11-23T22:26:30;9.20;99.90
18658;DHT22;9458;50.942;5.074;2022-11-23T22:29:01;9.20;99.90
18658;DHT22;9458;50.942;5.074;2022-11-23T22:31:33;9.20;99.90
18658;DHT22;9458;50.942;5.074;2022-11-23T22:34:02;9.20;99.90
18658;DHT22;9458;50.942;5.074;2022-11-23T22:36:31;9.30;99.90
18658;DHT22;9458;50.942;5.074;2022-11-23T22:39:02;9.20;99.90
18658;DHT22;9458;50.942;5.074;2022-11-23T22:41:31;9.30;99.90
18658;DHT22;9458;50.942;5.074;2022-11-23T22:44:04;9.30;99.90
18658;DHT22;9458;50.942;5.074;2022-11-23T22:46:33;9.30;99.90
18658;DHT22;9458;50.942;5.074;2022-11-23T22:49:01;9.30;99.90
18658;DHT22;9458;50.942;5.074;2022-11-23T22:51:30;9.30;99.90
18658;DHT22;9458;50.942;5.074;2022-11-23T22:54:02;9.30;99.90
18658;DHT22;9458;50.942;5.074;2022-11-23T22:56:30;9.30;99.90
18658;DHT22;9458;50.942;5.074;2022-11-23T22:58:59;9.30;99.90
18658;DHT22;9458;50.942;5.074;2022-11-23T23:01:36;9.30;99.90
18658;DHT22;9458;50.942;5.074;2022-11-23T23:04:04;9.30;99.90
18658;DHT22;9458;50.942;5.074;2022-11-23T23:06:32;9.30;99.90
18658;DHT22;9458;50.942;5.074;2022-11-23T23:09:04;9.40;99.90
18658;DHT22;9458;50.942;5.074;2022-11-23T23:11:35;9.30;99.90
18658;DHT22;9458;50.942;5.074;2022-11-23T23:14:05;9.30;99.90
18658;DHT22;9458;50.942;5.074;2022-11-23T23:16:33;9.30;99.90
18658;DHT22;9458;50.942;5.074;2022-11-23T23:19:05;9.30;99.90
18658;DHT22;9458;50.942;5.074;2022-11-23T23:21:34;9.30;99.90
18658;DHT22;9458;50.942;5.074;2022-11-23T23:24:02;9.30;99.90
18658;DHT22;9458;50.942;5.074;2022-11-23T23:26:31;9.40;99.90
18658;DHT22;9458;50.942;5.074;2022-11-23T23:28:59;9.40;99.90
18658;DHT22;9458;50.942;5.074;2022-11-23T23:31:29;9.40;99.90
18658;DHT22;9458;50.942;5.074;2022-11-23T23:33:58;9.40;99.90
18658;DHT22;9458;50.942;5.074;2022-11-23T23:36:28;9.40;99.90
18658;DHT22;9458;50.942;5.074;2022-11-23T23:39:01;9.40;99.90
18658;DHT22;9458;50.942;5.074;2022-11-23T23:41:29;9.40;99.90
18658;DHT22;9458;50.942;5.074;2022-11-23T23:43:57;9.40;99.90
18658;DHT22;9458;50.942;5.074;2022-11-23T23:46:25;9.40;99.90
18658;DHT22;9458;50.942;5.074;2022-11-23T23:48:53;9.40;99.90
18658;DHT22;9458;50.942;5.074;2022-11-23T23:51:22;9.40;99.90
18658;DHT22;9458;50.942;5.074;2022-11-23T23:53:56;9.40;99.90
18658;DHT22;9458;50.942;5.074;2022-11-23T23:56:26;9.50;99.90
18658;DHT22;9458;50.942;5.074;2022-11-23T23:58:57;9.40;99.90
